Main page
METAR-TAF:

METAR-TAF

Airports :

Gibraltar, Gibraltar

Gibraltar International Airport

latitude: 36-09N, longitude: 005-21W, elevation: 5 m

Current weather observation

The report was made 1 hour and 29 minutes ago, at 05:50 UTC
Wind 8 kt from the West/Southwest
Temperature 22°C
Humidity 65%
Pressure 1017 hPa
Visibility 10 km or more
Few clouds at a height of 2000 ft

METAR: LXGB 260550Z 24008KT 9999 FEW020 22/15 Q1017 NOSIG

Time: 09:19 (07:19 UTC)

Forecast

The report was made 2 hours and 35 minutes ago, at 04:44 UTC
Forecast valid from 26 at 06 UTC to 26 at 15 UTC
Wind 10 kt from the West/Southwest
Visibility 10 km or more
Few clouds at a height of 2000 ft
Temporary
from 26 at 10 UTC to 26 at 15 UTC
Wind 15 kt from the South/Southwest with gusts up to 25 kt

TAF: LXGB 260444Z 2606/2615 25010KT 9999 FEW020 TEMPO 2610/2615 20015G25KT 520001

Weather observations and forecasts of more than 4000 airports (METAR and TAF reports).

The available stations are represented by yellow and red dots on the map.

Hover mouse over dot to see the name of the station.

Then click to see weather observations and forecasts.

To change the map : click on the green buttons with a black cross to zoom in, on the green button with a dash to zoom out, or on the green arrows for adjacent maps.


METAR-TAF: